Decoded Metar for LYTV (TIVAT in SERBIA) (IATA:TIV) | Meteo·Mobile Aviation Weather
aviador You're here:

LYTV Decoded Metar

TIVAT in SERBIA
Report Time2019-01-18 11:00:00
UTC Time2019-01-18 11:16:08
Flight Rules vfr VFR
Wind150° at 14 kt
W.Decomp.*RWY 14: 13.9 kt HW 1.9 kt RCW
W.Rank150° ranks 2
Current wind is above 150° avg. (6.3)
Visibility9999 m
Phenomena:N/A
Clouds:Few 017 Hf
Scattered 040 Hf
Broken 080 Hf
Expected CloudBase > 1,600 ft AGL from Temp-Dew spread
Ceiling8,000 ft
Temp12°C (ISA -3)
Dew Point08°C (77% RH)
AAT6.5°C
QNH1015 hPa
Density Alt-259 ft
Elevation16 ft
Report Wrong Elevation
Raw Report
LYTV 181100Z 15014KT 9999 FEW017 SCT040 BKN080 12/08 Q1015
NOSIG=

Extra information for LYTV:More info

Metar Taf Metar & Taf Last 4 Metars F.Rules Stats Wind Profile Meteogram Temp Stats Airport Information Weather charts Add Link Nearby VenuesMetar ALERT Operation Metar Decoded Social comments